createdAt,value
2018-07-06T00:02:08.245Z,99400.30
2018-07-06T00:04:48.253Z,99396.38
2018-07-06T00:07:28.265Z,99398.44
2018-07-06T00:10:08.002Z,99398.11
2018-07-06T00:12:50.297Z,99395.98
2018-07-06T00:15:31.450Z,99401.59
2018-07-06T00:18:11.491Z,99403.17
2018-07-06T00:20:52.341Z,99398.29
2018-07-06T00:23:32.694Z,99401.74
2018-07-06T00:26:13.033Z,99401.02
2018-07-06T00:28:52.792Z,99399.79
2018-07-06T00:31:32.456Z,99396.92
2018-07-06T00:34:12.704Z,99391.98
2018-07-06T00:36:53.548Z,99397.95
2018-07-06T00:39:33.461Z,99400.52
2018-07-06T00:42:13.837Z,99401.09
2018-07-06T00:44:54.833Z,99396.78
2018-07-06T00:47:34.529Z,99398.58
2018-07-06T00:50:14.868Z,99394.73
2018-07-06T00:52:55.944Z,99395.34
2018-07-06T00:55:35.808Z,99399.33
2018-07-06T00:58:15.576Z,99401.13
2018-07-06T01:00:55.147Z,99401.84
2018-07-06T01:03:35.003Z,99403.61
2018-07-06T01:06:14.900Z,99405.16
2018-07-06T01:08:55.976Z,99410.36
2018-07-06T01:11:35.873Z,99410.48
2018-07-06T01:14:15.615Z,99411.45
2018-07-06T01:16:55.513Z,99413.59
2018-07-06T01:19:35.253Z,99408.31
2018-07-06T01:22:15.043Z,99404.98
2018-07-06T01:24:54.704Z,99406.01
2018-07-06T01:27:34.352Z,99406.60
2018-07-06T01:30:14.061Z,99410.45
2018-07-06T01:32:53.843Z,99416.27
2018-07-06T01:35:33.617Z,99413.83
2018-07-06T01:38:13.346Z,99420.30
2018-07-06T01:40:53.075Z,99414.11
2018-07-06T01:43:32.691Z,99413.83
2018-07-06T01:46:12.358Z,99413.75
2018-07-06T01:48:51.957Z,99414.16
2018-07-06T01:51:31.533Z,99408.77
2018-07-06T01:54:11.145Z,99412.04
2018-07-06T01:56:50.869Z,99414.86
2018-07-06T01:59:30.728Z,99424.55
2018-07-06T02:02:10.477Z,99420.27
2018-07-06T02:04:50.337Z,99420.84
2018-07-06T02:07:30.048Z,99420.23
2018-07-06T02:10:09.692Z,99426.01
2018-07-06T02:12:49.444Z,99431.88
2018-07-06T02:15:29.328Z,99433.95
2018-07-06T02:18:09.036Z,99434.59
2018-07-06T02:20:48.845Z,99433.39
2018-07-06T02:23:29.309Z,99430.64
2018-07-06T02:26:08.932Z,99433.33
2018-07-06T02:28:48.612Z,99436.52
2018-07-06T02:31:29.452Z,99431.15
2018-07-06T02:34:09.205Z,99430.79
2018-07-06T02:36:48.805Z,99437.66
2018-07-06T02:39:29.252Z,99441.99
2018-07-06T02:42:09.041Z,99450.11
2018-07-06T02:44:48.757Z,99436.35
2018-07-06T02:47:29.244Z,99444.43
2018-07-06T02:50:08.902Z,99451.70
2018-07-06T02:52:48.605Z,99448.51
2018-07-06T02:55:29.272Z,99445.35
2018-07-06T02:58:09.049Z,99453.09
2018-07-06T03:00:48.811Z,99450.11
2018-07-06T03:03:29.564Z,99450.01
2018-07-06T03:06:09.266Z,99448.69
2018-07-06T03:08:48.881Z,99457.35
2018-07-06T03:11:29.517Z,99455.26
2018-07-06T03:14:09.264Z,99459.61
2018-07-06T03:16:48.908Z,99457.81
2018-07-06T03:19:29.424Z,99458.88
2018-07-06T03:22:08.990Z,99462.30
2018-07-06T03:24:48.785Z,99464.81
2018-07-06T03:27:28.508Z,99464.66
2018-07-06T03:30:08.512Z,99466.02
2018-07-06T03:32:48.357Z,99467.27
2018-07-06T03:35:28.172Z,99466.74
2018-07-06T03:38:07.781Z,99464.59
2018-07-06T03:40:47.432Z,99467.84
2018-07-06T03:43:27.189Z,99464.25
2018-07-06T03:46:06.919Z,99466.94
2018-07-06T03:48:46.553Z,99467.58
2018-07-06T03:51:26.317Z,99466.78
2018-07-06T03:54:05.979Z,99471.58
2018-07-06T03:56:45.893Z,99472.41
2018-07-06T03:59:25.665Z,99470.19
2018-07-06T04:02:05.353Z,99468.47
2018-07-06T04:04:45.065Z,99473.34
2018-07-06T04:07:24.821Z,99478.62
2018-07-06T04:10:04.704Z,99482.61
2018-07-06T04:12:44.497Z,99488.38
2018-07-06T04:15:24.233Z,99492.19
2018-07-06T04:18:04.057Z,99493.36
2018-07-06T04:20:43.816Z,99496.11
2018-07-06T04:23:23.557Z,99491.02
2018-07-06T04:26:03.076Z,99485.52
2018-07-06T04:28:42.973Z,99492.83
2018-07-06T04:31:22.628Z,99491.70
2018-07-06T04:34:02.344Z,99493.16
2018-07-06T04:36:42.032Z,99500.58
2018-07-06T04:39:21.732Z,99500.42
2018-07-06T04:42:01.672Z,99497.16
2018-07-06T04:44:41.911Z,99498.63
2018-07-06T04:47:21.643Z,99509.36
2018-07-06T04:50:01.367Z,99503.19
2018-07-06T04:52:41.288Z,99512.48
2018-07-06T04:55:20.890Z,99514.24
2018-07-06T04:58:00.601Z,99513.76
2018-07-06T05:00:40.261Z,99515.16
2018-07-06T05:03:19.957Z,99521.37
2018-07-06T05:06:00.077Z,99528.70
2018-07-06T05:08:39.962Z,99530.90
2018-07-06T05:11:19.548Z,99531.47
2018-07-06T05:13:59.981Z,99533.52
2018-07-06T05:16:39.770Z,99534.77
2018-07-06T05:19:19.461Z,99537.30
2018-07-06T05:21:59.898Z,99537.30
2018-07-06T05:24:39.662Z,99546.02
2018-07-06T05:27:19.368Z,99537.73
2018-07-06T05:29:59.795Z,99530.01
2018-07-06T05:32:39.588Z,99546.50
2018-07-06T05:35:19.536Z,99549.47
2018-07-06T05:38:00.332Z,99553.43
2018-07-06T05:40:40.049Z,99555.78
2018-07-06T05:43:21.157Z,99553.80
2018-07-06T05:46:01.064Z,99555.06
2018-07-06T05:48:41.420Z,99567.34
2018-07-06T05:51:21.145Z,99568.83
2018-07-06T05:54:00.792Z,99568.12
2018-07-06T05:56:40.453Z,99578.04
2018-07-06T05:59:20.339Z,99583.92
2018-07-06T06:02:00.165Z,99580.55
2018-07-06T06:04:40.191Z,99586.50
2018-07-06T06:07:26.446Z,99579.95
2018-07-06T06:09:55.060Z,99581.84
2018-07-06T06:12:23.592Z,99584.88
2018-07-06T06:14:52.792Z,99576.00
2018-07-06T06:17:21.289Z,99577.20
2018-07-06T06:19:53.064Z,99587.38
2018-07-06T06:22:22.109Z,99583.13
2018-07-06T06:24:50.712Z,99586.30
2018-07-06T06:27:19.197Z,99587.98
2018-07-06T06:29:47.761Z,99597.72
2018-07-06T06:32:16.696Z,99603.10
2018-07-06T06:34:45.265Z,99602.97
2018-07-06T06:37:14.276Z,99609.31
2018-07-06T06:39:42.817Z,99606.25
2018-07-06T06:42:11.448Z,99602.51
2018-07-06T06:44:40.079Z,99599.34
2018-07-06T06:47:08.788Z,99599.75
2018-07-06T06:49:37.665Z,99596.98
2018-07-06T06:52:06.240Z,99602.03
2018-07-06T06:54:34.857Z,99606.59
2018-07-06T06:57:03.500Z,99615.20
2018-07-06T06:59:32.096Z,99610.25
2018-07-06T07:02:00.684Z,99621.73
2018-07-06T07:04:29.254Z,99619.20
2018-07-06T07:06:57.860Z,99614.67
2018-07-06T07:09:26.491Z,99615.58
2018-07-06T07:11:55.069Z,99616.30
2018-07-06T07:14:23.667Z,99613.36
2018-07-06T07:16:53.113Z,99622.78
2018-07-06T07:19:21.665Z,99616.77
2018-07-06T07:21:50.303Z,99619.50
2018-07-06T07:24:18.860Z,99626.48
2018-07-06T07:26:47.433Z,99619.54
2018-07-06T07:29:16.037Z,99618.67
2018-07-06T07:31:44.572Z,99628.70
2018-07-06T07:34:13.173Z,99612.56
2018-07-06T07:36:41.722Z,99615.92
2018-07-06T07:39:10.286Z,99620.64
2018-07-06T07:41:39.086Z,99624.84
2018-07-06T07:44:07.671Z,99632.12
2018-07-06T07:46:36.270Z,99633.80
2018-07-06T07:49:05.263Z,99631.45
2018-07-06T07:52:06.467Z,99631.24
2018-07-06T07:54:39.696Z,99629.06
2018-07-06T07:57:08.275Z,99636.94
2018-07-06T07:59:36.904Z,99638.56
2018-07-06T08:02:05.489Z,99642.41
2018-07-06T08:04:34.121Z,99641.91
2018-07-06T08:07:03.073Z,99641.22
2018-07-06T08:09:32.065Z,99650.05
2018-07-06T08:12:01.848Z,99649.66
2018-07-06T08:14:30.464Z,99653.19
2018-07-06T08:16:58.994Z,99650.75
2018-07-06T08:19:27.588Z,99650.52
2018-07-06T08:21:56.127Z,99655.20
2018-07-06T08:24:25.861Z,99655.59
2018-07-06T08:26:54.456Z,99662.91
2018-07-06T08:29:23.236Z,99667.20
2018-07-06T08:31:51.837Z,99663.91
2018-07-06T08:34:31.484Z,99662.38
2018-07-06T08:37:42.422Z,99666.16
2018-07-06T08:40:10.996Z,99662.16
2018-07-06T08:42:40.759Z,99671.56
2018-07-06T08:45:09.777Z,99667.52
2018-07-06T08:47:38.329Z,99679.83
2018-07-06T08:50:07.440Z,99683.30
2018-07-06T08:52:36.512Z,99684.13
2018-07-06T08:55:05.285Z,99686.50
2018-07-06T08:57:34.296Z,99680.02
2018-07-06T09:00:02.886Z,99682.95
2018-07-06T09:02:31.425Z,99680.19
2018-07-06T09:05:00.800Z,99681.22
2018-07-06T09:07:29.367Z,99682.39
2018-07-06T09:09:58.640Z,99676.97
2018-07-06T09:12:27.206Z,99686.20
2018-07-06T09:14:56.227Z,99694.48
2018-07-06T09:17:30.721Z,99689.61
2018-07-06T09:20:02.161Z,99685.52
2018-07-06T09:22:44.418Z,99684.28
2018-07-06T09:25:16.568Z,99693.73
2018-07-06T09:27:45.272Z,99691.12
2018-07-06T09:30:20.855Z,99692.92
2018-07-06T09:36:03.972Z,99702.73
2018-07-06T09:38:34.100Z,99689.81
2018-07-06T09:41:02.762Z,99694.66
2018-07-06T09:43:41.471Z,99695.87
2018-07-06T09:46:13.083Z,99693.03
2018-07-06T09:48:43.514Z,99694.80
2018-07-06T09:51:13.152Z,99690.48
2018-07-06T09:53:42.417Z,99686.15
2018-07-06T09:56:12.988Z,99692.78
2018-07-06T09:58:42.409Z,99695.23
2018-07-06T10:01:12.595Z,99699.25
2018-07-06T10:03:41.325Z,99700.02
2018-07-06T10:06:12.277Z,99699.08
2018-07-06T10:08:42.725Z,99694.39
2018-07-06T10:11:13.056Z,99690.84
2018-07-06T10:13:45.742Z,99701.06
2018-07-06T10:16:17.810Z,99704.27
2018-07-06T10:18:50.642Z,99698.58
2018-07-06T10:21:23.225Z,99700.13
2018-07-06T10:23:53.711Z,99697.02
2018-07-06T10:26:22.500Z,99696.27
2018-07-06T10:29:09.702Z,99695.94
2018-07-06T10:32:22.362Z,99698.44
2018-07-06T10:34:52.091Z,99698.45
2018-07-06T10:37:21.185Z,99699.63
2018-07-06T10:39:52.412Z,99699.29
2018-07-06T10:42:22.801Z,99694.59
2018-07-06T10:44:52.983Z,99697.27
2018-07-06T10:47:21.697Z,99707.03
2018-07-06T10:49:50.329Z,99698.83
2018-07-06T10:52:19.002Z,99702.48
2018-07-06T10:54:50.541Z,99704.05
2018-07-06T10:57:19.295Z,99707.08
2018-07-06T10:59:48.234Z,99708.99
2018-07-06T11:02:17.598Z,99706.98
2018-07-06T11:04:46.437Z,99709.33
2018-07-06T11:07:15.542Z,99708.69
2018-07-06T11:09:44.276Z,99703.82
2018-07-06T11:12:12.943Z,99707.35
2018-07-06T11:14:41.712Z,99710.50
2018-07-06T11:17:10.276Z,99703.05
2018-07-06T11:19:38.860Z,99704.67
2018-07-06T11:22:07.412Z,99707.22
2018-07-06T11:24:35.973Z,99706.08
2018-07-06T11:27:04.584Z,99705.33
2018-07-06T11:29:33.157Z,99701.94
2018-07-06T11:32:01.787Z,99714.28
2018-07-06T11:34:30.357Z,99707.22
2018-07-06T11:36:58.940Z,99707.02
2018-07-06T11:39:27.559Z,99712.30
2018-07-06T11:41:56.137Z,99705.80
2018-07-06T11:44:24.726Z,99713.11
2018-07-06T11:46:53.341Z,99716.07
2018-07-06T11:49:22.061Z,99710.13
2018-07-06T11:51:50.646Z,99715.52
2018-07-06T11:54:19.467Z,99710.36
2018-07-06T11:56:48.062Z,99714.41
2018-07-06T11:59:16.696Z,99715.84
2018-07-06T12:01:45.315Z,99715.22
2018-07-06T12:04:14.011Z,99716.20
2018-07-06T12:06:42.560Z,99714.05
2018-07-06T12:09:11.245Z,99699.91
2018-07-06T12:11:39.810Z,99710.28
2018-07-06T12:14:08.416Z,99712.55
2018-07-06T12:16:37.021Z,99701.06
2018-07-06T12:19:05.683Z,99710.85
2018-07-06T12:21:35.433Z,99716.39
2018-07-06T12:24:04.057Z,99716.05
2018-07-06T12:26:32.674Z,99706.05
2018-07-06T12:29:01.826Z,99712.41
2018-07-06T12:31:30.616Z,99717.02
2018-07-06T12:33:59.302Z,99717.81
2018-07-06T12:36:27.830Z,99705.73
2018-07-06T12:38:56.591Z,99709.39
2018-07-06T12:41:25.438Z,99709.39
2018-07-06T12:43:54.478Z,99706.34
2018-07-06T12:46:23.045Z,99701.27
2018-07-06T12:48:51.692Z,99701.80
2018-07-06T12:51:20.250Z,99706.92
2018-07-06T12:53:48.872Z,99700.25
2018-07-06T12:56:17.495Z,99690.73
2018-07-06T12:58:46.225Z,99699.33
2018-07-06T13:01:14.783Z,99699.86
2018-07-06T13:03:46.351Z,99687.36
2018-07-06T13:06:16.619Z,99702.06
2018-07-06T13:08:46.362Z,99691.31
2018-07-06T13:11:17.738Z,99695.98
2018-07-06T13:13:49.146Z,99702.25
2018-07-06T13:16:21.007Z,99700.08
2018-07-06T13:18:57.064Z,99699.66
2018-07-06T13:21:31.618Z,99698.72
2018-07-06T13:24:00.496Z,99703.67
2018-07-06T13:26:30.404Z,99708.86
2018-07-06T13:29:07.260Z,99693.92
2018-07-06T13:31:36.177Z,99705.61
2018-07-06T13:34:04.932Z,99698.03
2018-07-06T13:36:38.164Z,99704.18
2018-07-06T13:39:09.561Z,99696.99
2018-07-06T13:41:39.063Z,99705.78
2018-07-06T13:44:08.276Z,99708.31
2018-07-06T13:46:41.014Z,99707.34
2018-07-06T13:49:10.869Z,99705.02
2018-07-06T13:51:42.331Z,99707.16
2018-07-06T13:54:12.956Z,99702.39
2018-07-06T13:56:41.711Z,99700.09
2018-07-06T13:59:10.916Z,99697.77
2018-07-06T14:01:40.564Z,99706.97
2018-07-06T14:04:10.068Z,99708.62
2018-07-06T14:06:39.202Z,99700.61
2018-07-06T14:09:10.364Z,99703.44
2018-07-06T14:11:41.526Z,99706.14
2018-07-06T14:14:11.737Z,99703.67
2018-07-06T14:16:41.527Z,99710.48
2018-07-06T14:19:10.393Z,99709.00
2018-07-06T14:21:40.566Z,99700.91
2018-07-06T14:24:11.842Z,99704.40
2018-07-06T14:26:43.041Z,99706.78
2018-07-06T14:29:11.733Z,99692.33
2018-07-06T14:31:41.327Z,99685.86
2018-07-06T14:34:11.467Z,99692.97
2018-07-06T14:36:41.660Z,99696.42
2018-07-06T14:39:11.225Z,99702.55
2018-07-06T14:41:39.848Z,99695.52
2018-07-06T14:44:08.660Z,99696.87
2018-07-06T14:46:37.400Z,99693.94
2018-07-06T14:49:06.733Z,99691.94
2018-07-06T14:51:35.325Z,99704.24
2018-07-06T14:54:03.968Z,99698.81
2018-07-06T14:56:32.593Z,99700.50
2018-07-06T14:59:01.146Z,99706.60
2018-07-06T15:01:29.698Z,99699.63
2018-07-06T15:03:58.321Z,99705.28
2018-07-06T15:06:27.221Z,99701.70
2018-07-06T15:08:56.004Z,99702.01
2018-07-06T15:11:24.683Z,99704.27
2018-07-06T15:13:53.269Z,99704.84
2018-07-06T15:16:21.891Z,99698.48
2018-07-06T15:18:50.526Z,99702.61
2018-07-06T15:21:19.148Z,99703.61
2018-07-06T15:23:47.718Z,99700.16
2018-07-06T15:26:16.367Z,99698.68
2018-07-06T15:28:44.900Z,99694.77
2018-07-06T15:31:13.450Z,99694.83
2018-07-06T15:33:42.164Z,99704.83
2018-07-06T15:36:10.753Z,99701.13
2018-07-06T15:38:39.591Z,99701.95
2018-07-06T15:41:08.211Z,99698.48
2018-07-06T15:43:36.776Z,99699.51
2018-07-06T15:46:05.358Z,99708.56
2018-07-06T15:48:34.207Z,99707.34
2018-07-06T15:51:02.758Z,99704.33
2018-07-06T15:53:31.325Z,99710.05
2018-07-06T15:55:59.898Z,99710.40
2018-07-06T15:58:28.484Z,99707.98
2018-07-06T16:00:57.046Z,99703.94
2018-07-06T16:03:25.622Z,99703.88
2018-07-06T16:05:54.156Z,99699.83
2018-07-06T16:08:22.773Z,99700.24
2018-07-06T16:10:51.353Z,99701.36
2018-07-06T16:13:19.997Z,99696.06
2018-07-06T16:15:48.613Z,99694.86
2018-07-06T16:18:17.329Z,99697.36
2018-07-06T16:20:45.908Z,99700.52
2018-07-06T16:23:14.738Z,99700.95
2018-07-06T16:25:43.275Z,99699.80
2018-07-06T16:28:12.009Z,99699.06
2018-07-06T16:30:40.541Z,99699.47
2018-07-06T16:33:09.156Z,99702.52
2018-07-06T16:35:37.709Z,99697.23
2018-07-06T16:38:06.720Z,99695.31
2018-07-06T16:40:35.408Z,99709.13
2018-07-06T16:43:04.049Z,99696.66
2018-07-06T16:45:32.605Z,99700.72
2018-07-06T16:48:01.203Z,99705.12
2018-07-06T16:50:30.248Z,99715.20
2018-07-06T16:52:59.958Z,99716.92
2018-07-06T16:55:28.660Z,99719.02
2018-07-06T16:58:02.608Z,99723.27
2018-07-06T17:00:31.294Z,99725.80
2018-07-06T17:03:06.357Z,99729.03
2018-07-06T17:05:36.041Z,99709.74
2018-07-06T17:08:11.727Z,99729.59
2018-07-06T17:10:43.117Z,99730.59
2018-07-06T17:13:17.271Z,99736.44
2018-07-06T17:15:45.891Z,99736.14
2018-07-06T17:18:15.614Z,99735.11
2018-07-06T17:20:46.537Z,99733.92
2018-07-06T17:23:15.173Z,99741.13
2018-07-06T17:25:43.977Z,99743.27
2018-07-06T17:28:13.168Z,99737.83
2018-07-06T17:30:42.390Z,99740.86
2018-07-06T17:33:11.409Z,99748.53
2018-07-06T17:35:40.690Z,99738.11
2018-07-06T17:38:09.333Z,99748.25
2018-07-06T17:40:37.953Z,99748.14
2018-07-06T17:43:06.624Z,99752.33
2018-07-06T17:45:36.158Z,99750.45
2018-07-06T17:48:06.731Z,99748.77
2018-07-06T17:50:36.808Z,99751.13
2018-07-06T17:53:05.506Z,99751.86
2018-07-06T17:55:34.371Z,99751.34
2018-07-06T17:58:02.949Z,99752.56
2018-07-06T18:00:31.512Z,99760.85
2018-07-06T18:03:00.988Z,99761.18
2018-07-06T18:05:30.085Z,99757.68
2018-07-06T18:08:01.222Z,99755.31
2018-07-06T18:10:29.824Z,99750.09
2018-07-06T18:12:58.369Z,99753.02
2018-07-06T18:15:26.940Z,99761.77
2018-07-06T18:17:55.785Z,99757.82
2018-07-06T18:20:24.453Z,99761.27
2018-07-06T18:22:53.028Z,99763.89
2018-07-06T18:25:21.581Z,99760.19
2018-07-06T18:27:50.396Z,99763.64
2018-07-06T18:30:19.369Z,99765.34
2018-07-06T18:32:47.908Z,99768.72
2018-07-06T18:35:16.465Z,99726.98
2018-07-06T18:37:45.225Z,99777.45
2018-07-06T18:40:14.108Z,99777.16
2018-07-06T18:42:42.893Z,99774.58
2018-07-06T18:45:12.656Z,99787.12
2018-07-06T18:47:41.302Z,99784.88
2018-07-06T18:50:11.420Z,99785.77
2018-07-06T18:52:40.934Z,99785.03
2018-07-06T18:55:09.521Z,99787.75
2018-07-06T18:57:40.072Z,99779.06
2018-07-06T19:00:09.093Z,99787.10
2018-07-06T19:02:39.554Z,99790.05
2018-07-06T19:05:08.178Z,99788.23
2018-07-06T19:07:36.977Z,99789.93
2018-07-06T19:10:05.943Z,99788.96
2018-07-06T19:12:34.492Z,99792.13
2018-07-06T19:15:03.206Z,99789.19
2018-07-06T19:17:31.733Z,99792.98
2018-07-06T19:20:00.305Z,99794.19
2018-07-06T19:22:28.833Z,99795.67
2018-07-06T19:24:57.533Z,99801.24
2018-07-06T19:27:26.168Z,99805.67
2018-07-06T19:29:54.666Z,99809.55
2018-07-06T19:32:23.713Z,99809.05
2018-07-06T19:34:53.492Z,99811.58
2018-07-06T19:37:22.059Z,99823.64
2018-07-06T19:39:52.226Z,99828.99
2018-07-06T19:42:22.341Z,99828.98
2018-07-06T19:44:50.917Z,99828.81
2018-07-06T19:47:19.445Z,99839.31
2018-07-06T19:49:49.271Z,99837.83
2018-07-06T19:52:17.929Z,99835.02
2018-07-06T19:54:47.489Z,99839.40
2018-07-06T19:57:16.074Z,99850.27
2018-07-06T19:59:44.640Z,99860.49
2018-07-06T20:02:13.165Z,99861.13
2018-07-06T20:04:41.733Z,99865.78
2018-07-06T20:07:10.250Z,99868.18
2018-07-06T20:09:39.853Z,99867.59
2018-07-06T20:12:08.423Z,99874.72
2018-07-06T20:14:36.961Z,99867.67
2018-07-06T20:17:07.388Z,99875.46
2018-07-06T20:19:35.935Z,99882.41
2018-07-06T20:22:04.531Z,99882.98
2018-07-06T20:24:33.067Z,99891.98
2018-07-06T20:27:01.679Z,99894.47
2018-07-06T20:29:30.233Z,99891.70
2018-07-06T20:31:58.793Z,99893.41
2018-07-06T20:34:27.394Z,99904.29
2018-07-06T20:36:56.049Z,99904.51
2018-07-06T20:39:24.574Z,99906.38
2018-07-06T20:41:53.509Z,99899.46
2018-07-06T20:44:22.093Z,99898.05
2018-07-06T20:46:50.872Z,99907.83
2018-07-06T20:49:19.613Z,99909.61
2018-07-06T20:51:48.490Z,99908.13
2018-07-06T20:54:17.047Z,99914.11
2018-07-06T20:56:45.654Z,99910.60
2018-07-06T20:59:14.201Z,99912.87
2018-07-06T21:01:42.752Z,99916.48
2018-07-06T21:04:11.309Z,99916.41
2018-07-06T21:06:39.884Z,99917.22
2018-07-06T21:09:08.896Z,99918.20
2018-07-06T21:11:38.677Z,99923.25
2018-07-06T21:14:07.232Z,99923.72
2018-07-06T21:16:35.795Z,99930.25
2018-07-06T21:19:04.328Z,99920.03
2018-07-06T21:21:32.906Z,99922.61
2018-07-06T21:24:01.872Z,99921.31
2018-07-06T21:26:30.448Z,99929.41
2018-07-06T21:28:58.970Z,99928.02
2018-07-06T21:31:27.592Z,99931.95
2018-07-06T21:33:56.109Z,99933.92
2018-07-06T21:36:25.029Z,99926.55
2018-07-06T21:38:53.544Z,99929.95
2018-07-06T21:41:22.096Z,99932.19
2018-07-06T21:43:50.862Z,99930.67
2018-07-06T21:46:19.437Z,99931.17
2018-07-06T21:48:48.001Z,99934.31
2018-07-06T21:51:16.616Z,99935.98
2018-07-06T21:53:45.142Z,99929.19
2018-07-06T21:56:13.841Z,99936.05
2018-07-06T21:58:42.375Z,99929.16
2018-07-06T22:01:10.919Z,99930.39
2018-07-06T22:03:39.836Z,99928.36
2018-07-06T22:06:08.884Z,99933.28
2018-07-06T22:08:37.449Z,99935.09
2018-07-06T22:11:06.021Z,99932.55
2018-07-06T22:13:34.589Z,99936.59
2018-07-06T22:16:03.137Z,99937.86
2018-07-06T22:18:31.708Z,99940.71
2018-07-06T22:21:00.477Z,99937.34
2018-07-06T22:23:29.032Z,99941.45
2018-07-06T22:25:57.552Z,99939.17
2018-07-06T22:28:26.112Z,99936.11
2018-07-06T22:30:55.256Z,99940.64
2018-07-06T22:33:23.916Z,99939.13
2018-07-06T22:35:52.437Z,99937.94
2018-07-06T22:38:21.041Z,99943.09
2018-07-06T22:40:49.661Z,99941.27
2018-07-06T22:43:18.552Z,99941.59
2018-07-06T22:45:47.092Z,99937.69
2018-07-06T22:48:15.673Z,99942.34
2018-07-06T22:50:44.516Z,99946.00
2018-07-06T22:53:13.096Z,99947.56
2018-07-06T22:55:41.669Z,99951.61
2018-07-06T22:58:10.245Z,99949.78
2018-07-06T23:00:39.160Z,99952.08
2018-07-06T23:03:07.741Z,99946.98
2018-07-06T23:05:36.291Z,99952.30
2018-07-06T23:08:04.887Z,99949.61
2018-07-06T23:10:35.064Z,99950.41
2018-07-06T23:13:03.644Z,99955.32
2018-07-06T23:15:32.161Z,99949.73
2018-07-06T23:18:03.356Z,99951.06
2018-07-06T23:20:32.946Z,99949.02
2018-07-06T23:23:07.425Z,99945.86
2018-07-06T23:25:39.265Z,99951.40
2018-07-06T23:28:09.373Z,99945.80
2018-07-06T23:30:39.105Z,99952.73
2018-07-06T23:33:09.479Z,99946.30
2018-07-06T23:35:39.280Z,99946.67
2018-07-06T23:38:09.695Z,99951.61
2018-07-06T23:40:40.180Z,99949.20
2018-07-06T23:43:15.650Z,99951.83
2018-07-06T23:45:49.212Z,99950.90
2018-07-06T23:48:23.860Z,99950.06
2018-07-06T23:50:58.948Z,99952.59
2018-07-06T23:53:34.502Z,99955.06
2018-07-06T23:56:08.955Z,99953.13
2018-07-06T23:58:38.061Z,99950.48
